createdAt,value
2023-03-30T00:01:53.289Z,24.00
2023-03-30T00:05:04.358Z,24.10
2023-03-30T00:08:16.046Z,24.20
2023-03-30T00:11:28.606Z,24.30
2023-03-30T00:14:43.269Z,24.40
2023-03-30T00:17:57.237Z,24.50
2023-03-30T00:21:08.466Z,24.50
2023-03-30T00:24:18.197Z,24.40
2023-03-30T00:27:28.158Z,24.30
2023-03-30T00:30:40.931Z,24.20
2023-03-30T00:33:53.329Z,24.10
2023-03-30T00:37:03.657Z,24.10
2023-03-30T00:40:18.782Z,24.00
2023-03-30T00:43:30.791Z,23.90
2023-03-30T00:46:40.016Z,23.80
2023-03-30T00:49:50.261Z,23.80
2023-03-30T00:53:03.259Z,23.80
2023-03-30T00:56:14.226Z,23.70
2023-03-30T00:59:28.570Z,23.70
2023-03-30T01:02:40.515Z,23.60
2023-03-30T01:05:51.867Z,23.60
2023-03-30T01:09:02.679Z,23.50
2023-03-30T01:12:13.793Z,23.50
2023-03-30T01:15:27.073Z,23.40
2023-03-30T01:18:46.609Z,23.40
2023-03-30T01:22:15.233Z,23.40
2023-03-30T01:26:06.141Z,23.40
2023-03-30T01:29:17.803Z,23.30
2023-03-30T01:33:09.177Z,23.40
2023-03-30T01:36:34.338Z,23.50
2023-03-30T01:39:50.741Z,23.40
2023-03-30T01:43:00.696Z,23.30
2023-03-30T01:46:14.099Z,23.30
2023-03-30T01:49:23.656Z,23.30
2023-03-30T01:52:37.399Z,23.30
2023-03-30T01:55:47.658Z,23.20
2023-03-30T01:58:59.784Z,23.10
2023-03-30T02:05:29.212Z,23.10
2023-03-30T02:08:40.600Z,23.10
2023-03-30T02:11:53.619Z,23.00
2023-03-30T02:15:02.660Z,22.90
2023-03-30T02:18:12.401Z,22.90
2023-03-30T02:21:22.175Z,22.90
2023-03-30T02:24:34.546Z,22.90
2023-03-30T02:27:45.755Z,22.80
2023-03-30T02:30:57.325Z,22.80
2023-03-30T02:34:15.803Z,22.70
2023-03-30T02:37:40.700Z,22.70
2023-03-30T02:40:51.765Z,22.70
2023-03-30T02:44:05.901Z,22.70
2023-03-30T02:47:17.984Z,22.70
2023-03-30T02:50:31.735Z,22.60
2023-03-30T02:53:45.589Z,22.60
2023-03-30T02:56:57.503Z,22.60
2023-03-30T03:00:11.269Z,22.60
2023-03-30T03:03:24.998Z,22.50
2023-03-30T03:06:33.654Z,22.50
2023-03-30T03:09:43.600Z,22.50
2023-03-30T03:12:56.135Z,22.40
2023-03-30T03:16:07.811Z,22.40
2023-03-30T03:19:17.726Z,22.30
2023-03-30T03:22:31.985Z,22.40
2023-03-30T03:25:41.920Z,22.40
2023-03-30T03:28:51.603Z,22.30
2023-03-30T03:32:00.751Z,22.30
2023-03-30T03:35:11.985Z,22.20
2023-03-30T03:38:23.747Z,22.30
2023-03-30T03:41:33.892Z,22.20
2023-03-30T03:44:44.354Z,22.20
2023-03-30T03:47:58.705Z,22.10
2023-03-30T03:51:11.740Z,22.10
2023-03-30T03:54:21.716Z,22.20
2023-03-30T03:57:29.255Z,22.10
2023-03-30T04:00:41.618Z,22.10
2023-03-30T04:03:49.666Z,22.00
2023-03-30T04:06:58.704Z,22.10
2023-03-30T04:10:08.443Z,22.10
2023-03-30T04:13:18.278Z,22.00
2023-03-30T04:16:29.076Z,22.00
2023-03-30T04:19:38.423Z,22.00
2023-03-30T04:22:51.866Z,22.00
2023-03-30T04:26:00.601Z,22.00
2023-03-30T04:29:12.494Z,21.90
2023-03-30T04:32:21.763Z,21.80
2023-03-30T04:35:33.522Z,21.80
2023-03-30T04:38:43.524Z,21.80
2023-03-30T04:41:55.454Z,21.70
2023-03-30T04:45:07.267Z,21.70
2023-03-30T04:48:19.902Z,21.70
2023-03-30T04:51:28.672Z,21.60
2023-03-30T04:54:38.751Z,21.70
2023-03-30T04:57:48.951Z,21.60
2023-03-30T05:04:16.029Z,21.50
2023-03-30T05:07:28.488Z,21.60
2023-03-30T05:10:42.192Z,21.60
2023-03-30T05:13:52.605Z,21.50
2023-03-30T05:17:03.480Z,21.50
2023-03-30T05:20:16.735Z,21.50
2023-03-30T05:23:26.522Z,21.60
2023-03-30T05:26:36.488Z,21.90
2023-03-30T05:29:49.257Z,22.00
2023-03-30T05:33:02.487Z,22.00
2023-03-30T05:36:19.324Z,21.90
2023-03-30T05:39:30.971Z,21.80
2023-03-30T05:42:41.614Z,21.70
2023-03-30T05:45:52.345Z,21.70
2023-03-30T05:49:00.413Z,21.60
2023-03-30T05:52:10.747Z,21.60
2023-03-30T05:55:26.391Z,21.70
2023-03-30T05:58:39.050Z,21.90
2023-03-30T06:01:50.007Z,22.00
2023-03-30T06:05:00.691Z,22.00
2023-03-30T06:08:13.736Z,21.90
2023-03-30T06:11:25.267Z,21.90
2023-03-30T06:14:36.410Z,21.80
2023-03-30T06:17:47.364Z,21.70
2023-03-30T06:20:56.646Z,21.60
2023-03-30T06:24:10.192Z,21.60
2023-03-30T06:27:21.114Z,21.70
2023-03-30T06:30:30.413Z,21.80
2023-03-30T06:33:41.554Z,22.00
2023-03-30T06:36:51.195Z,22.00
2023-03-30T06:40:02.492Z,21.90
2023-03-30T06:43:15.395Z,21.80
2023-03-30T06:46:24.697Z,21.70
2023-03-30T06:49:34.867Z,21.70
2023-03-30T06:52:46.432Z,21.60
2023-03-30T06:55:58.723Z,21.70
2023-03-30T06:59:11.386Z,21.80
2023-03-30T07:02:22.050Z,21.90
2023-03-30T07:05:33.798Z,22.00
2023-03-30T07:08:42.657Z,21.90
2023-03-30T07:11:51.234Z,21.80
2023-03-30T07:15:01.421Z,21.80
2023-03-30T07:18:13.765Z,21.70
2023-03-30T07:21:22.580Z,21.60
2023-03-30T07:24:35.136Z,21.60
2023-03-30T07:27:44.841Z,21.80
2023-03-30T07:30:55.230Z,21.90
2023-03-30T07:34:06.132Z,22.00
2023-03-30T07:37:20.312Z,21.90
2023-03-30T07:40:27.684Z,21.80
2023-03-30T07:43:37.642Z,21.80
2023-03-30T07:46:48.462Z,21.70
2023-03-30T07:49:59.086Z,21.60
2023-03-30T07:53:08.439Z,21.70
2023-03-30T07:56:21.724Z,21.80
2023-03-30T07:59:33.745Z,21.90
2023-03-30T08:02:45.270Z,21.90
2023-03-30T08:06:01.494Z,21.90
2023-03-30T08:09:13.380Z,21.80
2023-03-30T08:12:26.157Z,21.70
2023-03-30T08:15:35.327Z,21.70
2023-03-30T08:18:46.370Z,21.70
2023-03-30T08:21:58.442Z,21.80
2023-03-30T08:25:11.616Z,21.90
2023-03-30T08:28:22.467Z,22.00
2023-03-30T08:31:33.210Z,21.90
2023-03-30T08:34:41.391Z,21.80
2023-03-30T08:37:51.567Z,21.80
2023-03-30T08:41:01.584Z,21.70
2023-03-30T08:44:12.058Z,21.60
2023-03-30T08:47:25.927Z,21.70
2023-03-30T08:50:39.227Z,21.90
2023-03-30T08:53:49.644Z,22.00
2023-03-30T08:57:07.573Z,22.00
2023-03-30T09:00:30.034Z,21.90
2023-03-30T09:03:41.223Z,21.80
2023-03-30T09:06:54.270Z,21.70
2023-03-30T09:10:05.610Z,21.60
2023-03-30T09:13:18.350Z,21.70
2023-03-30T09:16:34.409Z,21.90
2023-03-30T09:19:47.961Z,21.90
2023-03-30T09:23:03.577Z,21.90
2023-03-30T09:26:19.803Z,21.90
2023-03-30T09:29:31.656Z,21.80
2023-03-30T09:32:45.733Z,21.70
2023-03-30T09:36:12.423Z,21.70
2023-03-30T09:39:25.848Z,21.80
2023-03-30T09:42:35.113Z,21.90
2023-03-30T09:45:45.420Z,22.00
2023-03-30T09:48:55.680Z,22.00
2023-03-30T09:52:10.096Z,21.90
2023-03-30T09:55:31.359Z,21.80
2023-03-30T09:58:43.211Z,21.70
2023-03-30T10:01:53.355Z,21.60
2023-03-30T10:05:09.156Z,21.70
2023-03-30T10:08:25.907Z,21.80
2023-03-30T10:11:40.610Z,21.90
2023-03-30T10:14:50.357Z,21.90
2023-03-30T10:18:01.357Z,21.90
2023-03-30T10:21:17.297Z,21.80
2023-03-30T10:24:29.818Z,21.70
2023-03-30T10:27:42.843Z,21.60
2023-03-30T10:30:57.561Z,21.50
2023-03-30T10:34:09.338Z,21.40
2023-03-30T10:37:21.618Z,21.50
2023-03-30T10:40:35.344Z,21.60
2023-03-30T10:43:46.260Z,21.80
2023-03-30T10:46:57.722Z,21.80
2023-03-30T10:50:11.212Z,21.80
2023-03-30T10:53:38.126Z,21.70
2023-03-30T10:56:50.012Z,21.60
2023-03-30T11:00:15.198Z,21.50
2023-03-30T11:03:27.829Z,21.60
2023-03-30T11:06:43.236Z,21.80
2023-03-30T11:09:56.236Z,21.90
2023-03-30T11:13:06.963Z,22.00
2023-03-30T11:16:17.819Z,22.10
2023-03-30T11:19:28.416Z,22.20
2023-03-30T11:22:39.525Z,22.30
2023-03-30T11:25:56.166Z,22.40
2023-03-30T11:29:12.005Z,22.60
2023-03-30T11:32:31.059Z,22.70
2023-03-30T11:35:44.531Z,22.90
2023-03-30T11:38:53.034Z,23.00
2023-03-30T11:42:06.106Z,23.10
2023-03-30T11:45:24.277Z,23.30
2023-03-30T11:49:09.270Z,23.40
2023-03-30T11:52:26.945Z,23.60
2023-03-30T11:55:44.772Z,23.60
2023-03-30T11:58:58.604Z,23.50
2023-03-30T12:02:16.632Z,23.30
2023-03-30T12:05:31.454Z,23.20
2023-03-30T12:09:20.925Z,23.20
2023-03-30T12:12:37.087Z,23.30
2023-03-30T12:15:49.406Z,23.60
2023-03-30T12:19:03.863Z,23.70
2023-03-30T12:22:17.863Z,23.80
2023-03-30T12:25:31.227Z,23.90
2023-03-30T12:29:26.288Z,24.00
2023-03-30T12:32:15.530Z,24.10
2023-03-30T12:36:12.645Z,24.20
2023-03-30T12:39:26.790Z,24.20
2023-03-30T12:42:41.164Z,24.40
2023-03-30T12:45:58.512Z,24.50
2023-03-30T12:49:11.585Z,24.40
2023-03-30T12:52:22.004Z,24.40
2023-03-30T12:55:38.871Z,24.20
2023-03-30T12:59:02.764Z,24.10
2023-03-30T13:02:24.145Z,24.20
2023-03-30T13:05:39.167Z,24.30
2023-03-30T13:08:50.161Z,24.40
2023-03-30T13:12:33.539Z,24.60
2023-03-30T13:15:48.701Z,24.70
2023-03-30T13:19:03.304Z,24.80
2023-03-30T13:22:37.460Z,24.80
2023-03-30T13:25:51.844Z,24.70
2023-03-30T13:29:22.545Z,24.60
2023-03-30T13:32:38.356Z,24.60
2023-03-30T13:36:02.414Z,24.70
2023-03-30T13:39:18.299Z,24.70
2023-03-30T13:42:38.494Z,24.80
2023-03-30T13:45:55.011Z,24.90
2023-03-30T13:49:22.498Z,25.10
2023-03-30T13:52:38.154Z,25.20
2023-03-30T13:55:47.766Z,25.30
2023-03-30T13:59:03.097Z,25.30
2023-03-30T14:02:18.667Z,25.20
2023-03-30T14:05:29.543Z,25.20
2023-03-30T14:08:42.237Z,25.20
2023-03-30T14:11:53.004Z,25.10
2023-03-30T14:15:03.763Z,25.10
2023-03-30T14:18:15.918Z,25.10
2023-03-30T14:21:29.937Z,25.10
2023-03-30T14:24:42.006Z,25.20
2023-03-30T14:27:52.685Z,25.20
2023-03-30T14:31:07.161Z,25.40
2023-03-30T14:34:29.845Z,25.50
2023-03-30T14:37:46.644Z,25.50
2023-03-30T14:40:56.527Z,25.50
2023-03-30T14:44:06.182Z,25.50
2023-03-30T14:47:16.996Z,25.40
2023-03-30T14:50:27.628Z,25.30
2023-03-30T14:53:37.720Z,25.30
2023-03-30T14:56:48.694Z,25.20
2023-03-30T15:00:01.063Z,25.30
2023-03-30T15:03:26.452Z,25.20
2023-03-30T15:06:31.137Z,25.30
2023-03-30T15:09:44.252Z,25.30
2023-03-30T15:12:54.012Z,25.40
2023-03-30T15:16:03.294Z,25.50
2023-03-30T15:19:18.980Z,25.50
2023-03-30T15:22:34.138Z,25.50
2023-03-30T15:25:47.304Z,25.50
2023-03-30T15:28:57.657Z,25.50
2023-03-30T15:32:15.307Z,25.40
2023-03-30T15:35:31.342Z,25.30
2023-03-30T15:38:42.122Z,25.40
2023-03-30T15:41:53.577Z,25.50
2023-03-30T15:45:13.248Z,25.50
2023-03-30T15:48:27.683Z,25.60
2023-03-30T15:51:38.637Z,25.50
2023-03-30T15:54:49.978Z,25.40
2023-03-30T15:57:58.550Z,25.30
2023-03-30T16:01:10.914Z,25.20
2023-03-30T16:04:21.652Z,25.10
2023-03-30T16:07:29.954Z,25.10
2023-03-30T16:10:42.516Z,25.10
2023-03-30T16:13:52.246Z,25.10
2023-03-30T16:17:03.481Z,25.30
2023-03-30T16:20:21.917Z,25.40
2023-03-30T16:23:33.222Z,25.60
2023-03-30T16:26:44.806Z,25.70
2023-03-30T16:29:55.391Z,25.70
2023-03-30T16:33:05.652Z,25.70
2023-03-30T16:36:18.850Z,25.50
2023-03-30T16:39:28.108Z,25.40
2023-03-30T16:42:37.429Z,25.30
2023-03-30T16:45:48.871Z,25.40
2023-03-30T16:48:59.592Z,25.40
2023-03-30T16:52:10.441Z,25.30
2023-03-30T16:55:21.406Z,25.30
2023-03-30T16:58:32.963Z,25.30
2023-03-30T17:01:42.907Z,25.30
2023-03-30T17:04:53.801Z,25.20
2023-03-30T17:08:10.851Z,25.30
2023-03-30T17:11:21.661Z,25.50
2023-03-30T17:14:31.518Z,25.50
2023-03-30T17:17:44.280Z,25.40
2023-03-30T17:20:55.342Z,25.40
2023-03-30T17:24:07.516Z,25.40
2023-03-30T17:27:20.223Z,25.30
2023-03-30T17:30:33.525Z,25.20
2023-03-30T17:33:43.239Z,25.30
2023-03-30T17:36:57.528Z,25.30
2023-03-30T17:40:15.932Z,25.20
2023-03-30T17:43:25.131Z,25.20
2023-03-30T17:46:36.111Z,25.10
2023-03-30T17:49:47.106Z,25.20
2023-03-30T17:52:54.452Z,25.40
2023-03-30T17:56:04.085Z,25.50
2023-03-30T17:59:17.536Z,25.50
2023-03-30T18:02:30.588Z,25.40
2023-03-30T18:09:00.158Z,25.20
2023-03-30T18:12:13.705Z,25.10
2023-03-30T18:15:27.013Z,25.10
2023-03-30T18:18:36.933Z,25.00
2023-03-30T18:21:47.584Z,24.90
2023-03-30T18:24:56.652Z,24.90
2023-03-30T18:28:06.554Z,24.80
2023-03-30T18:31:17.866Z,24.80
2023-03-30T18:34:32.558Z,24.70
2023-03-30T18:37:45.731Z,24.90
2023-03-30T18:40:53.636Z,25.00
2023-03-30T18:44:06.251Z,25.20
2023-03-30T18:47:17.022Z,25.20
2023-03-30T18:50:33.898Z,25.20
2023-03-30T18:53:44.507Z,25.10
2023-03-30T18:56:55.426Z,25.00
2023-03-30T19:00:07.574Z,24.90
2023-03-30T19:03:20.261Z,24.80
2023-03-30T19:06:29.477Z,24.80
2023-03-30T19:09:43.232Z,24.70
2023-03-30T19:12:52.558Z,24.70
2023-03-30T19:16:05.955Z,24.70
2023-03-30T19:19:19.731Z,24.60
2023-03-30T19:22:31.591Z,24.60
2023-03-30T19:25:43.426Z,24.60
2023-03-30T19:28:55.113Z,24.60
2023-03-30T19:32:04.909Z,24.70
2023-03-30T19:35:15.842Z,24.90
2023-03-30T19:38:27.439Z,25.00
2023-03-30T19:41:36.894Z,25.00
2023-03-30T19:44:46.545Z,24.90
2023-03-30T19:47:57.530Z,24.90
2023-03-30T19:51:08.589Z,24.80
2023-03-30T19:54:17.754Z,24.70
2023-03-30T19:57:27.686Z,24.70
2023-03-30T20:00:38.066Z,24.60
2023-03-30T20:03:51.730Z,24.50
2023-03-30T20:07:02.797Z,24.50
2023-03-30T20:10:14.877Z,24.40
2023-03-30T20:13:26.955Z,24.40
2023-03-30T20:16:38.707Z,24.40
2023-03-30T20:19:51.544Z,24.40
2023-03-30T20:23:03.945Z,24.60
2023-03-30T20:26:14.773Z,24.70
2023-03-30T20:29:26.715Z,24.80
2023-03-30T20:32:37.857Z,24.80
2023-03-30T20:35:49.075Z,24.70
2023-03-30T20:39:01.060Z,24.70
2023-03-30T20:42:12.164Z,24.60
2023-03-30T20:45:24.046Z,24.60
2023-03-30T20:48:33.434Z,24.50
2023-03-30T20:51:44.987Z,24.40
2023-03-30T20:58:14.935Z,24.30
2023-03-30T21:01:28.142Z,24.30
2023-03-30T21:04:39.744Z,24.30
2023-03-30T21:07:54.305Z,24.20
2023-03-30T21:11:05.485Z,24.20
2023-03-30T21:14:16.812Z,24.20
2023-03-30T21:17:26.877Z,24.10
2023-03-30T21:20:38.519Z,24.10
2023-03-30T21:23:49.598Z,24.20
2023-03-30T21:27:01.055Z,24.30
2023-03-30T21:30:14.937Z,24.50
2023-03-30T21:33:26.737Z,24.60
2023-03-30T21:36:36.345Z,24.50
2023-03-30T21:39:46.953Z,24.50
2023-03-30T21:42:57.052Z,24.40
2023-03-30T21:46:10.780Z,24.40
2023-03-30T21:49:19.363Z,24.30
2023-03-30T21:52:31.306Z,24.20
2023-03-30T21:55:41.520Z,24.20
2023-03-30T21:58:52.505Z,24.20
2023-03-30T22:02:06.455Z,24.10
2023-03-30T22:05:17.656Z,24.10
2023-03-30T22:08:30.273Z,24.10
2023-03-30T22:11:39.514Z,24.20
2023-03-30T22:14:53.336Z,24.20
2023-03-30T22:18:05.597Z,24.20
2023-03-30T22:21:17.216Z,24.20
2023-03-30T22:24:27.728Z,24.20
2023-03-30T22:27:39.925Z,24.20
2023-03-30T22:30:52.168Z,24.20
2023-03-30T22:34:03.226Z,24.20
2023-03-30T22:37:12.599Z,24.20
2023-03-30T22:40:28.051Z,24.20
2023-03-30T22:43:37.614Z,24.20
2023-03-30T22:46:52.103Z,24.20
2023-03-30T22:50:05.441Z,24.20
2023-03-30T22:53:18.569Z,24.20
2023-03-30T22:56:27.842Z,24.20
2023-03-30T22:59:38.759Z,24.20
2023-03-30T23:02:49.885Z,24.20
2023-03-30T23:06:01.692Z,24.10
2023-03-30T23:09:15.112Z,24.20
2023-03-30T23:12:22.184Z,24.10
2023-03-30T23:15:36.376Z,24.20
2023-03-30T23:18:45.299Z,24.40
2023-03-30T23:21:59.955Z,24.50
2023-03-30T23:25:14.363Z,24.60
2023-03-30T23:28:22.638Z,24.70
2023-03-30T23:31:34.045Z,24.60
2023-03-30T23:34:44.733Z,24.50
2023-03-30T23:37:57.336Z,24.40
2023-03-30T23:41:07.131Z,24.30
2023-03-30T23:44:17.923Z,24.20
2023-03-30T23:47:27.921Z,24.20
2023-03-30T23:50:40.522Z,24.20
2023-03-30T23:53:53.563Z,24.20
2023-03-30T23:57:08.343Z,24.30
